createdAt,value
2023-04-14T00:01:31.203Z,2.00
2023-04-14T00:03:58.429Z,2.10
2023-04-14T00:06:33.223Z,2.10
2023-04-14T00:09:06.943Z,2.20
2023-04-14T00:11:40.251Z,2.30
2023-04-14T00:14:14.168Z,2.30
2023-04-14T00:16:49.219Z,2.30
2023-04-14T00:19:23.192Z,2.20
2023-04-14T00:21:50.371Z,2.10
2023-04-14T00:24:24.172Z,2.20
2023-04-14T00:26:51.665Z,2.10
2023-04-14T00:29:25.178Z,2.00
2023-04-14T00:31:59.176Z,2.00
2023-04-14T00:34:33.180Z,1.90
2023-04-14T00:37:00.296Z,1.90
2023-04-14T00:39:34.167Z,1.80
2023-04-14T00:42:11.306Z,1.70
2023-04-14T00:44:38.368Z,1.70
2023-04-14T00:47:12.196Z,1.60
2023-04-14T00:49:39.674Z,1.60
2023-04-14T00:52:13.200Z,1.50
2023-04-14T00:54:47.211Z,1.50
2023-04-14T00:57:21.189Z,1.50
2023-04-14T00:59:55.183Z,1.50
2023-04-14T01:02:22.553Z,1.40
2023-04-14T01:04:57.279Z,1.40
2023-04-14T01:07:34.262Z,1.30
2023-04-14T01:10:16.220Z,1.30
2023-04-14T01:13:12.237Z,1.20
2023-04-14T01:16:10.278Z,1.10
2023-04-14T01:18:46.211Z,1.10
2023-04-14T01:21:30.205Z,1.20
2023-04-14T01:24:31.183Z,1.10
2023-04-14T01:27:37.248Z,1.10
2023-04-14T01:30:47.202Z,1.00
2023-04-14T01:33:22.605Z,1.00
2023-04-14T01:36:05.187Z,1.10
2023-04-14T01:38:42.243Z,1.20
2023-04-14T01:41:21.164Z,1.20
2023-04-14T01:44:02.259Z,1.20
2023-04-14T01:46:29.385Z,1.30
2023-04-14T01:49:03.433Z,1.30
2023-04-14T01:51:33.970Z,1.20
2023-04-14T01:54:11.216Z,1.10
2023-04-14T01:56:40.322Z,1.00
2023-04-14T01:59:18.183Z,0.90
2023-04-14T02:01:55.263Z,0.90
2023-04-14T02:04:34.229Z,0.90
2023-04-14T02:07:05.226Z,0.90
2023-04-14T02:09:47.223Z,0.80
2023-04-14T02:12:14.757Z,0.80
2023-04-14T02:14:51.313Z,0.70
2023-04-14T02:17:28.281Z,0.60
2023-04-14T02:20:05.694Z,0.60
2023-04-14T02:22:33.096Z,0.70
2023-04-14T02:25:00.487Z,0.70
2023-04-14T02:27:45.236Z,0.80
2023-04-14T02:30:19.382Z,0.80
2023-04-14T02:33:03.270Z,0.90
2023-04-14T02:35:43.797Z,0.90
2023-04-14T02:38:35.208Z,0.80
2023-04-14T02:41:21.214Z,0.80
2023-04-14T02:44:00.961Z,0.80
2023-04-14T02:46:42.429Z,0.70
2023-04-14T02:49:14.932Z,0.60
2023-04-14T02:51:52.197Z,0.70
2023-04-14T02:54:28.225Z,0.80
2023-04-14T02:57:04.208Z,0.90
2023-04-14T02:59:39.220Z,1.00
2023-04-14T03:02:16.212Z,0.90
2023-04-14T03:04:51.212Z,0.90
2023-04-14T03:07:28.198Z,0.90
2023-04-14T03:10:09.220Z,1.00
2023-04-14T03:12:37.893Z,1.00
2023-04-14T03:15:14.229Z,1.10
2023-04-14T03:17:43.370Z,1.10
2023-04-14T03:20:19.224Z,1.10
2023-04-14T03:22:48.476Z,1.10
2023-04-14T03:25:16.079Z,1.20
2023-04-14T03:27:53.231Z,1.20
2023-04-14T03:30:26.427Z,1.20
2023-04-14T03:33:02.336Z,1.20
2023-04-14T03:35:37.238Z,1.30
2023-04-14T03:38:16.205Z,1.30
2023-04-14T03:40:47.956Z,1.30
2023-04-14T03:43:27.208Z,1.30
2023-04-14T03:45:54.264Z,1.30
2023-04-14T03:48:37.284Z,1.20
2023-04-14T03:51:09.319Z,1.20
2023-04-14T03:53:48.261Z,1.10
2023-04-14T03:56:24.256Z,1.00
2023-04-14T03:58:56.052Z,0.90
2023-04-14T04:01:32.237Z,0.90
2023-04-14T04:04:03.315Z,0.90
2023-04-14T04:06:37.237Z,1.00
2023-04-14T04:09:21.206Z,1.00
2023-04-14T04:11:51.125Z,1.00
2023-04-14T04:14:28.243Z,1.00
2023-04-14T04:16:57.816Z,1.00
2023-04-14T04:19:33.282Z,0.90
2023-04-14T04:22:11.723Z,0.90
2023-04-14T04:24:47.216Z,0.80
2023-04-14T04:27:27.174Z,0.80
2023-04-14T04:30:03.214Z,0.90
2023-04-14T04:32:37.261Z,0.90
2023-04-14T04:35:14.214Z,0.90
2023-04-14T04:37:50.250Z,0.90
2023-04-14T04:40:24.274Z,0.90
2023-04-14T04:42:58.241Z,0.90
2023-04-14T04:46:20.203Z,0.90
2023-04-14T04:49:02.475Z,0.90
2023-04-14T04:51:36.239Z,0.80
2023-04-14T04:54:10.234Z,0.80
2023-04-14T04:56:44.213Z,0.80
2023-04-14T04:59:11.978Z,0.80
2023-04-14T05:01:46.745Z,0.80
2023-04-14T05:04:14.158Z,0.90
2023-04-14T05:06:48.254Z,0.90
2023-04-14T05:12:13.251Z,1.00
2023-04-14T05:14:40.485Z,1.10
2023-04-14T05:17:14.332Z,1.20
2023-04-14T05:19:42.042Z,1.30
2023-04-14T05:22:16.286Z,1.40
2023-04-14T05:24:58.260Z,1.50
2023-04-14T05:27:32.226Z,1.50
2023-04-14T05:29:59.525Z,1.60
2023-04-14T05:32:35.287Z,1.70
2023-04-14T05:35:09.196Z,1.80
2023-04-14T05:37:36.527Z,1.90
2023-04-14T05:40:11.544Z,2.10
2023-04-14T05:42:41.056Z,2.10
2023-04-14T05:45:16.216Z,2.20
2023-04-14T05:47:46.264Z,2.30
2023-04-14T05:50:22.291Z,2.40
2023-04-14T05:52:50.871Z,2.50
2023-04-14T05:55:26.227Z,2.60
2023-04-14T05:58:00.249Z,2.80
2023-04-14T06:00:28.227Z,2.80
2023-04-14T06:03:03.966Z,3.00
2023-04-14T06:05:32.045Z,3.10
2023-04-14T06:08:16.303Z,3.10
2023-04-14T06:10:59.328Z,3.30
2023-04-14T06:13:35.716Z,3.40
2023-04-14T06:16:10.389Z,3.50
2023-04-14T06:18:44.340Z,3.60
2023-04-14T06:21:12.545Z,3.80
2023-04-14T06:23:46.350Z,4.00
2023-04-14T06:26:14.250Z,4.00
2023-04-14T06:28:50.376Z,4.20
2023-04-14T06:31:25.539Z,4.30
2023-04-14T06:33:53.307Z,4.50
2023-04-14T06:36:27.389Z,4.60
2023-04-14T06:39:04.345Z,4.90
2023-04-14T06:41:38.399Z,5.00
2023-04-14T06:44:06.039Z,5.10
2023-04-14T06:46:42.546Z,5.30
2023-04-14T06:49:16.516Z,5.40
2023-04-14T06:51:50.468Z,5.50
2023-04-14T06:54:24.297Z,5.50
2023-04-14T06:57:00.050Z,5.70
2023-04-14T06:59:36.391Z,5.70
2023-04-14T07:02:10.361Z,5.90
2023-04-14T07:04:44.521Z,6.00
2023-04-14T07:07:21.351Z,6.00
2023-04-14T07:09:55.652Z,6.20
2023-04-14T07:12:29.425Z,6.30
2023-04-14T07:14:57.095Z,6.30
2023-04-14T07:17:31.414Z,6.60
2023-04-14T07:20:05.460Z,6.80
2023-04-14T07:22:33.501Z,6.80
2023-04-14T07:25:07.428Z,7.00
2023-04-14T07:27:35.134Z,7.20
2023-04-14T07:30:09.428Z,7.40
2023-04-14T07:32:36.818Z,7.30
2023-04-14T07:35:11.381Z,7.30
2023-04-14T07:37:45.399Z,7.50
2023-04-14T07:40:19.459Z,7.60
2023-04-14T07:42:48.148Z,7.70
2023-04-14T07:45:22.394Z,7.80
2023-04-14T07:47:57.661Z,8.00
2023-04-14T07:50:32.362Z,8.30
2023-04-14T07:53:00.344Z,8.50
2023-04-14T07:55:34.461Z,8.60
2023-04-14T07:58:08.656Z,8.70
2023-04-14T08:00:36.341Z,8.70
2023-04-14T08:03:10.595Z,8.70
2023-04-14T08:05:38.364Z,8.90
2023-04-14T08:08:12.457Z,8.90
2023-04-14T08:10:55.792Z,8.90
2023-04-14T08:13:23.354Z,8.80
2023-04-14T08:15:57.514Z,8.90
2023-04-14T08:18:25.854Z,9.10
2023-04-14T08:21:00.431Z,9.00
2023-04-14T08:23:28.057Z,9.20
2023-04-14T08:26:02.328Z,9.20
2023-04-14T08:28:30.111Z,9.00
2023-04-14T08:31:04.536Z,9.20
2023-04-14T08:33:31.970Z,9.30
2023-04-14T08:36:06.643Z,9.50
2023-04-14T08:38:34.247Z,9.50
2023-04-14T08:41:14.435Z,9.70
2023-04-14T08:43:41.996Z,9.90
2023-04-14T08:46:12.060Z,10.10
2023-04-14T08:48:47.385Z,10.20
2023-04-14T08:51:48.347Z,10.40
2023-04-14T08:54:23.754Z,10.90
2023-04-14T08:56:58.515Z,11.30
2023-04-14T08:59:27.806Z,11.40
2023-04-14T09:02:03.570Z,11.40
2023-04-14T09:04:38.431Z,11.40
2023-04-14T09:07:06.209Z,11.50
2023-04-14T09:09:47.414Z,11.40
2023-04-14T09:12:23.594Z,11.40
2023-04-14T09:14:59.531Z,11.30
2023-04-14T09:17:29.404Z,11.40
2023-04-14T09:20:36.242Z,11.70
2023-04-14T09:23:00.428Z,11.60
2023-04-14T09:25:34.428Z,11.80
2023-04-14T09:28:01.874Z,11.40
2023-04-14T09:30:36.534Z,11.00
2023-04-14T09:33:08.254Z,10.10
2023-04-14T09:35:56.342Z,9.60
2023-04-14T09:38:39.216Z,9.60
2023-04-14T09:41:13.423Z,10.40
2023-04-14T09:43:41.137Z,11.40
2023-04-14T09:46:17.526Z,11.80
2023-04-14T09:49:03.427Z,12.00
2023-04-14T09:51:39.415Z,12.50
2023-04-14T09:54:07.105Z,13.20
2023-04-14T09:56:41.425Z,13.80
2023-04-14T09:59:17.453Z,14.20
2023-04-14T10:01:46.904Z,14.50
2023-04-14T10:04:34.241Z,15.20
2023-04-14T10:07:08.777Z,15.90
2023-04-14T10:09:45.509Z,16.40
2023-04-14T10:12:19.598Z,16.20
2023-04-14T10:14:53.431Z,16.00
2023-04-14T10:17:21.584Z,16.00
2023-04-14T10:19:56.529Z,15.60
2023-04-14T10:22:34.459Z,14.60
2023-04-14T10:25:08.437Z,13.50
2023-04-14T10:27:37.168Z,12.70
2023-04-14T10:30:13.478Z,12.00
2023-04-14T10:32:49.460Z,11.70
2023-04-14T10:35:19.813Z,11.70
2023-04-14T10:37:58.582Z,12.20
2023-04-14T10:40:26.410Z,13.80
2023-04-14T10:43:03.559Z,15.20
2023-04-14T10:45:31.188Z,15.50
2023-04-14T10:48:05.809Z,15.80
2023-04-14T10:50:55.445Z,15.30
2023-04-14T10:53:33.506Z,14.40
2023-04-14T10:56:11.455Z,14.60
2023-04-14T10:58:40.013Z,14.00
2023-04-14T11:01:38.727Z,13.40
2023-04-14T11:04:30.646Z,14.00
2023-04-14T11:07:06.836Z,14.80
2023-04-14T11:09:42.487Z,16.00
2023-04-14T11:12:34.524Z,16.60
2023-04-14T11:15:05.975Z,15.70
2023-04-14T11:17:45.702Z,14.50
2023-04-14T11:20:24.451Z,13.60
2023-04-14T11:23:00.426Z,13.00
2023-04-14T11:25:34.481Z,12.70
2023-04-14T11:28:04.899Z,13.00
2023-04-14T11:30:40.532Z,14.30
2023-04-14T11:33:07.927Z,15.20
2023-04-14T11:35:42.423Z,15.00
2023-04-14T11:38:21.448Z,14.50
2023-04-14T11:40:53.625Z,14.30
2023-04-14T11:43:29.467Z,14.00
2023-04-14T11:46:02.212Z,13.50
2023-04-14T11:48:38.734Z,13.10
2023-04-14T11:51:12.440Z,12.70
2023-04-14T11:53:43.534Z,12.30
2023-04-14T11:56:19.368Z,12.00
2023-04-14T11:58:47.466Z,11.30
2023-04-14T12:01:22.663Z,11.30
2023-04-14T12:03:56.628Z,11.40
2023-04-14T12:06:34.520Z,11.60
2023-04-14T12:09:09.788Z,11.90
2023-04-14T12:11:46.553Z,12.20
2023-04-14T12:14:14.306Z,12.10
2023-04-14T12:16:50.367Z,12.10
2023-04-14T12:19:24.394Z,12.40
2023-04-14T12:22:00.410Z,12.80
2023-04-14T12:24:42.761Z,14.00
2023-04-14T12:27:17.499Z,15.50
2023-04-14T12:29:54.400Z,17.00
2023-04-14T12:32:29.434Z,17.40
2023-04-14T12:35:07.769Z,16.80
2023-04-14T12:37:42.455Z,16.10
2023-04-14T12:40:18.481Z,15.50
2023-04-14T12:42:52.235Z,14.70
2023-04-14T12:45:27.224Z,14.00
2023-04-14T12:47:57.888Z,13.50
2023-04-14T12:50:35.426Z,13.10
2023-04-14T12:53:10.463Z,12.70
2023-04-14T12:55:39.898Z,12.50
2023-04-14T12:58:14.518Z,12.70
2023-04-14T13:00:41.905Z,12.90
2023-04-14T13:03:15.451Z,12.70
2023-04-14T13:05:51.792Z,12.80
2023-04-14T13:08:25.482Z,12.20
2023-04-14T13:11:06.864Z,12.40
2023-04-14T13:13:40.447Z,12.00
2023-04-14T13:16:15.395Z,11.80
2023-04-14T13:18:55.921Z,11.70
2023-04-14T13:21:23.684Z,11.60
2023-04-14T13:23:57.741Z,11.70
2023-04-14T13:26:25.209Z,12.30
2023-04-14T13:28:59.835Z,14.10
2023-04-14T13:31:27.354Z,16.50
2023-04-14T13:34:01.515Z,18.60
2023-04-14T13:36:35.452Z,20.00
2023-04-14T13:39:11.475Z,20.50
2023-04-14T13:41:38.794Z,20.20
2023-04-14T13:44:13.498Z,19.70
2023-04-14T13:46:49.638Z,19.70
2023-04-14T13:49:23.711Z,20.00
2023-04-14T13:51:58.437Z,20.00
2023-04-14T13:54:32.414Z,19.70
2023-04-14T13:57:07.424Z,19.90
2023-04-14T13:59:34.703Z,19.50
2023-04-14T14:02:08.655Z,19.70
2023-04-14T14:04:43.669Z,19.50
2023-04-14T14:07:18.509Z,19.00
2023-04-14T14:09:59.419Z,19.00
2023-04-14T14:12:41.727Z,18.80
2023-04-14T14:15:18.486Z,19.60
2023-04-14T14:17:52.528Z,18.80
2023-04-14T14:20:28.072Z,18.90
2023-04-14T14:22:55.296Z,18.70
2023-04-14T14:25:32.031Z,18.60
2023-04-14T14:27:59.605Z,19.60
2023-04-14T14:30:33.712Z,20.60
2023-04-14T14:33:01.541Z,20.90
2023-04-14T14:35:35.445Z,21.20
2023-04-14T14:38:09.464Z,20.60
2023-04-14T14:40:43.533Z,20.10
2023-04-14T14:43:13.142Z,20.50
2023-04-14T14:45:48.603Z,19.40
2023-04-14T14:48:16.857Z,18.30
2023-04-14T14:50:50.604Z,17.80
2023-04-14T14:53:24.443Z,17.50
2023-04-14T14:55:52.244Z,17.30
2023-04-14T14:58:27.825Z,17.30
2023-04-14T15:00:55.447Z,17.30
2023-04-14T15:03:29.802Z,17.60
2023-04-14T15:06:03.472Z,17.80
2023-04-14T15:08:37.775Z,17.60
2023-04-14T15:11:11.619Z,17.30
2023-04-14T15:13:45.665Z,17.40
2023-04-14T15:16:22.056Z,17.00
2023-04-14T15:18:56.617Z,17.20
2023-04-14T15:21:25.132Z,16.90
2023-04-14T15:23:58.477Z,17.00
2023-04-14T15:26:26.078Z,16.80
2023-04-14T15:28:53.506Z,16.70
2023-04-14T15:31:27.572Z,16.60
2023-04-14T15:33:55.263Z,16.50
2023-04-14T15:36:30.483Z,16.70
2023-04-14T15:38:57.890Z,16.60
2023-04-14T15:41:35.118Z,16.40
2023-04-14T15:44:03.430Z,16.50
2023-04-14T15:46:37.955Z,16.20
2023-04-14T15:49:05.215Z,15.60
2023-04-14T15:51:39.514Z,14.80
2023-04-14T15:54:07.324Z,14.10
2023-04-14T15:56:35.692Z,13.80
2023-04-14T15:59:10.917Z,13.40
2023-04-14T16:01:38.212Z,12.90
2023-04-14T16:04:05.960Z,12.60
2023-04-14T16:06:41.501Z,12.60
2023-04-14T16:09:15.646Z,12.70
2023-04-14T16:11:56.484Z,12.80
2023-04-14T16:14:30.514Z,13.30
2023-04-14T16:16:58.834Z,13.90
2023-04-14T16:19:33.511Z,14.30
2023-04-14T16:22:02.971Z,14.60
2023-04-14T16:24:38.571Z,15.00
2023-04-14T16:27:06.957Z,14.90
2023-04-14T16:29:41.582Z,14.90
2023-04-14T16:32:09.028Z,14.80
2023-04-14T16:34:43.605Z,14.80
2023-04-14T16:37:10.849Z,14.70
2023-04-14T16:39:38.325Z,14.50
2023-04-14T16:42:15.573Z,14.20
2023-04-14T16:44:43.808Z,13.80
2023-04-14T16:47:17.564Z,13.60
2023-04-14T16:49:51.626Z,12.90
2023-04-14T16:52:20.185Z,12.40
2023-04-14T16:54:55.876Z,11.80
2023-04-14T16:57:23.323Z,11.30
2023-04-14T16:59:57.526Z,10.80
2023-04-14T17:02:25.015Z,10.30
2023-04-14T17:04:59.684Z,10.00
2023-04-14T17:07:27.018Z,9.80
2023-04-14T17:10:14.544Z,9.50
2023-04-14T17:12:44.041Z,9.30
2023-04-14T17:15:18.521Z,9.00
2023-04-14T17:17:53.580Z,8.80
2023-04-14T17:20:28.516Z,8.60
2023-04-14T17:22:59.007Z,8.50
2023-04-14T17:25:34.506Z,8.30
2023-04-14T17:28:08.772Z,8.00
2023-04-14T17:30:44.493Z,7.80
2023-04-14T17:33:19.535Z,7.60
2023-04-14T17:35:53.622Z,7.40
2023-04-14T17:38:22.228Z,7.20
2023-04-14T17:40:57.529Z,7.00
2023-04-14T17:43:31.488Z,6.90
2023-04-14T17:46:05.679Z,6.70
2023-04-14T17:48:33.555Z,6.50
2023-04-14T17:51:09.515Z,6.40
2023-04-14T17:53:43.464Z,6.20
2023-04-14T17:56:20.098Z,6.10
2023-04-14T17:58:47.508Z,5.90
2023-04-14T18:01:21.574Z,5.80
2023-04-14T18:03:50.348Z,5.60
2023-04-14T18:06:30.564Z,5.40
2023-04-14T18:09:04.499Z,5.30
2023-04-14T18:11:45.521Z,5.20
2023-04-14T18:14:19.937Z,5.10
2023-04-14T18:16:53.638Z,5.00
2023-04-14T18:19:28.520Z,5.00
2023-04-14T18:22:03.540Z,4.90
2023-04-14T18:29:51.503Z,4.70
2023-04-14T18:32:18.888Z,4.70
2023-04-14T18:34:46.395Z,4.60
2023-04-14T18:37:20.471Z,4.50
2023-04-14T18:39:48.760Z,4.40
2023-04-14T18:42:15.918Z,4.40
2023-04-14T18:44:49.437Z,4.30
2023-04-14T18:47:17.937Z,4.20
2023-04-14T18:49:52.479Z,4.10
2023-04-14T18:52:26.462Z,4.00
2023-04-14T18:55:00.422Z,4.00
2023-04-14T18:57:29.179Z,4.00
2023-04-14T19:00:03.417Z,4.00
2023-04-14T19:02:37.724Z,4.00
2023-04-14T19:05:12.446Z,4.00
2023-04-14T19:07:41.202Z,3.80
2023-04-14T19:10:15.485Z,3.80
2023-04-14T19:12:55.444Z,3.70
2023-04-14T19:15:29.424Z,3.60
2023-04-14T19:17:56.490Z,3.50
2023-04-14T19:20:30.508Z,3.40
2023-04-14T19:22:58.595Z,3.40
2023-04-14T19:25:32.453Z,3.40
2023-04-14T19:28:09.340Z,3.50
2023-04-14T19:30:39.045Z,3.40
2023-04-14T19:33:12.447Z,3.40
2023-04-14T19:35:46.428Z,3.40
2023-04-14T19:38:20.437Z,3.30
2023-04-14T19:40:55.472Z,3.30
2023-04-14T19:43:22.610Z,3.30
2023-04-14T19:46:00.435Z,3.20
2023-04-14T19:48:34.410Z,3.30
2023-04-14T19:51:10.442Z,3.30
2023-04-14T19:53:44.555Z,3.30
2023-04-14T19:56:19.523Z,3.30
2023-04-14T19:58:46.622Z,3.30
2023-04-14T20:01:20.498Z,3.30
2023-04-14T20:04:06.786Z,3.30
2023-04-14T20:06:51.472Z,3.30
2023-04-14T20:09:32.463Z,3.30
2023-04-14T20:12:12.460Z,3.20
2023-04-14T20:14:40.632Z,3.20
2023-04-14T20:17:15.508Z,3.20
2023-04-14T20:19:49.441Z,3.20
2023-04-14T20:22:16.557Z,3.10
2023-04-14T20:24:50.464Z,3.20
2023-04-14T20:27:17.558Z,3.20
2023-04-14T20:29:51.469Z,3.20
2023-04-14T20:32:19.706Z,3.10
2023-04-14T20:34:53.498Z,3.20
2023-04-14T20:37:28.921Z,3.10
2023-04-14T20:39:56.857Z,3.10
2023-04-14T20:42:31.477Z,3.10
2023-04-14T20:44:58.618Z,3.10
2023-04-14T20:47:32.594Z,3.00
2023-04-14T20:50:00.903Z,3.00
2023-04-14T20:52:35.418Z,2.90
2023-04-14T20:55:10.496Z,2.80
2023-04-14T20:57:38.412Z,2.80
2023-04-14T21:00:10.498Z,2.70
2023-04-14T21:02:45.577Z,2.80
2023-04-14T21:05:21.482Z,2.80
2023-04-14T21:07:49.023Z,2.80
2023-04-14T21:10:23.451Z,2.70
2023-04-14T21:15:26.654Z,2.70
2023-04-14T21:15:59.503Z,2.70
2023-04-14T21:18:26.916Z,2.70
2023-04-14T21:21:00.484Z,2.70
2023-04-14T21:23:27.780Z,2.70
2023-04-14T21:26:01.476Z,2.70
2023-04-14T21:28:35.498Z,2.60
2023-04-14T21:31:03.111Z,2.60
2023-04-14T21:33:38.476Z,2.60
2023-04-14T21:36:05.985Z,2.50
2023-04-14T21:38:40.487Z,2.50
2023-04-14T21:41:14.504Z,2.50
2023-04-14T21:43:48.469Z,2.50
2023-04-14T21:46:22.590Z,2.50
2023-04-14T21:48:56.471Z,2.50
2023-04-14T21:51:30.511Z,2.50
2023-04-14T21:54:04.512Z,2.40
2023-04-14T21:56:38.547Z,2.40
2023-04-14T21:59:06.632Z,2.40
2023-04-14T22:01:34.399Z,2.30
2023-04-14T22:04:08.608Z,2.30
2023-04-14T22:06:36.648Z,2.30
2023-04-14T22:09:10.456Z,2.30
2023-04-14T22:11:51.516Z,2.30
2023-04-14T22:14:18.793Z,2.40
2023-04-14T22:16:52.555Z,2.40
2023-04-14T22:19:20.055Z,2.40
2023-04-14T22:21:56.768Z,2.40
2023-04-14T22:24:24.313Z,2.40
2023-04-14T22:26:58.450Z,2.30
2023-04-14T22:29:25.556Z,2.30
2023-04-14T22:31:52.661Z,2.30
2023-04-14T22:34:26.508Z,2.30
2023-04-14T22:36:53.678Z,2.20
2023-04-14T22:39:27.516Z,2.20
2023-04-14T22:42:01.474Z,2.20
2023-04-14T22:44:35.651Z,2.20
2023-04-14T22:47:10.512Z,2.20
2023-04-14T22:49:37.543Z,2.20
2023-04-14T22:52:11.467Z,2.20
2023-04-14T22:54:38.549Z,2.20
2023-04-14T22:57:12.534Z,2.20
2023-04-14T22:59:39.584Z,2.20
2023-04-14T23:02:13.529Z,2.20
2023-04-14T23:04:41.019Z,2.10
2023-04-14T23:07:14.503Z,2.10
2023-04-14T23:09:41.603Z,2.10
2023-04-14T23:12:22.472Z,2.10
2023-04-14T23:14:55.495Z,2.10
2023-04-14T23:17:29.578Z,2.10
2023-04-14T23:20:03.488Z,2.10
2023-04-14T23:22:30.598Z,2.00
2023-04-14T23:25:04.503Z,2.10
2023-04-14T23:27:33.451Z,2.10
2023-04-14T23:30:07.531Z,2.20
2023-04-14T23:32:41.496Z,2.20
2023-04-14T23:35:09.473Z,2.10
2023-04-14T23:37:43.522Z,2.20
2023-04-14T23:40:14.385Z,2.20
2023-04-14T23:42:48.858Z,2.20
2023-04-14T23:45:16.037Z,2.20
2023-04-14T23:47:49.501Z,2.20
2023-04-14T23:50:16.602Z,2.20
2023-04-14T23:52:50.465Z,2.10
2023-04-14T23:55:18.376Z,2.10
2023-04-14T23:57:45.434Z,2.10
